Time;durP1;ratioP1;P1;durP2;ratioP2;P2;SDS_P1;SDS_P2;PMS_P1;PMS_P2;Temp;Humidity;BMP_temperature;BMP_pressure;BME280_temperature;BME280_humidity;BME280_pressure;Samples;Min_cycle;Max_cycle;Signal;HPM_P1;HPM_P2
2023/07/02 00:00:22;;;;;;;11.20;4.60;;;17.90;1.00;;;;;;4986631;28;20178;-79
2023/07/02 00:02:47;;;;;;;10.33;4.57;;;17.90;1.00;;;;;;4984867;28;20194;-79
2023/07/02 00:05:13;;;;;;;10.10;6.00;;;17.80;99.90;;;;;;4997426;28;20451;-79
2023/07/02 00:07:38;;;;;;;14.10;5.30;;;17.80;99.90;;;;;;4993680;28;20221;-79
2023/07/02 00:10:05;;;;;;;8.10;4.93;;;17.80;99.90;;;;;;4990283;28;20605;-79
2023/07/02 00:12:30;;;;;;;8.37;5.00;;;17.70;99.90;;;;;;4998486;28;20246;-79
2023/07/02 00:14:56;;;;;;;10.57;5.10;;;17.70;57.60;;;;;;4993763;28;20897;-79
2023/07/02 00:17:22;;;;;;;12.53;6.33;;;17.70;1.00;;;;;;5004389;28;20268;-79
2023/07/02 00:19:51;;;;;;;9.70;5.73;;;17.70;1.00;;;;;;4990753;28;20202;-79
2023/07/02 00:22:17;;;;;;;11.60;5.30;;;17.60;1.00;;;;;;4985031;28;20214;-79
2023/07/02 00:24:42;;;;;;;10.23;6.70;;;17.60;1.00;;;;;;4987151;28;20433;-79
2023/07/02 00:27:08;;;;;;;11.73;6.27;;;17.60;1.00;;;;;;4998227;28;20181;-79
2023/07/02 00:29:33;;;;;;;10.73;6.03;;;17.60;1.00;;;;;;4996803;28;20617;-79
2023/07/02 00:31:59;;;;;;;12.50;5.90;;;17.60;1.00;;;;;;4980417;28;20198;-79
2023/07/02 00:34:25;;;;;;;16.10;6.40;;;17.50;1.00;;;;;;5005820;28;20199;-78
2023/07/02 00:36:50;;;;;;;13.83;6.80;;;17.50;1.00;;;;;;4974735;28;20185;-79
2023/07/02 00:39:17;;;;;;;9.10;6.20;;;17.50;1.00;;;;;;4977939;28;20218;-79
2023/07/02 00:41:46;;;;;;;9.73;5.80;;;17.40;1.00;;;;;;4982941;28;20180;-79
2023/07/02 00:44:12;;;;;;;12.90;6.13;;;17.40;26.30;;;;;;4993915;28;20441;-79
2023/07/02 00:46:37;;;;;;;19.00;5.87;;;17.40;99.90;;;;;;4991493;28;21072;-79
2023/07/02 00:49:04;;;;;;;13.50;6.80;;;17.40;99.90;;;;;;4992542;28;20470;-79
2023/07/02 00:51:30;;;;;;;14.67;6.47;;;17.30;99.90;;;;;;4982995;28;20279;-79
2023/07/02 00:53:57;;;;;;;16.70;7.83;;;17.30;99.90;;;;;;4974008;28;20567;-79
2023/07/02 00:56:24;;;;;;;17.30;7.03;;;17.30;99.90;;;;;;4984886;28;20248;-79
2023/07/02 00:58:52;;;;;;;13.63;7.50;;;17.30;99.90;;;;;;4995117;28;20576;-79
2023/07/02 01:01:22;;;;;;;14.90;7.10;;;17.30;97.20;;;;;;4998035;28;20449;-79
2023/07/02 01:03:59;;;;;;;11.20;7.27;;;17.30;90.90;;;;;;4990543;28;20446;-79
2023/07/02 01:06:26;;;;;;;13.87;8.40;;;17.20;59.80;;;;;;4997963;28;20809;-78
2023/07/02 01:08:54;;;;;;;16.33;7.80;;;17.20;53.00;;;;;;4979847;28;20463;-79
2023/07/02 01:11:22;;;;;;;18.13;8.07;;;17.20;90.00;;;;;;4978046;28;20445;-79
2023/07/02 01:13:49;;;;;;;18.53;8.00;;;17.20;28.20;;;;;;4985938;28;20474;-79
2023/07/02 01:16:15;;;;;;;16.13;8.00;;;17.10;20.80;;;;;;4991486;28;20430;-78
2023/07/02 01:18:40;;;;;;;14.00;8.27;;;17.10;37.60;;;;;;4986992;28;20525;-79
2023/07/02 01:21:06;;;;;;;18.37;9.60;;;17.10;48.20;;;;;;4988158;28;20618;-78
2023/07/02 01:23:33;;;;;;;15.43;8.60;;;17.00;99.80;;;;;;4983381;28;20219;-79
2023/07/02 01:25:59;;;;;;;21.47;9.23;;;17.00;99.90;;;;;;4992152;28;20190;-79
2023/07/02 01:28:25;;;;;;;17.90;10.00;;;16.90;99.90;;;;;;5003244;28;20464;-79
2023/07/02 01:30:51;;;;;;;19.80;9.33;;;16.90;99.90;;;;;;4985839;28;20184;-79
2023/07/02 01:33:16;;;;;;;22.27;11.07;;;16.90;99.90;;;;;;4990325;28;20430;-78
2023/07/02 01:35:42;;;;;;;17.70;10.67;;;16.90;99.90;;;;;;4988481;28;20187;-79
2023/07/02 01:38:08;;;;;;;18.33;10.57;;;16.90;99.90;;;;;;4984206;28;20231;-79
2023/07/02 01:40:33;;;;;;;13.10;9.30;;;16.90;99.90;;;;;;5002192;28;20257;-79
2023/07/02 01:42:59;;;;;;;26.00;11.40;;;16.90;99.90;;;;;;4997995;28;20287;-78
2023/07/02 01:45:25;;;;;;;18.83;9.77;;;16.90;99.10;;;;;;4985613;28;20432;-79
2023/07/02 01:47:50;;;;;;;21.90;11.57;;;16.90;99.90;;;;;;4985898;28;20714;-78
2023/07/02 01:50:16;;;;;;;20.70;11.40;;;16.80;99.90;;;;;;4989393;28;20438;-78
2023/07/02 01:52:41;;;;;;;17.43;10.90;;;16.80;99.90;;;;;;4987924;28;20184;-79
2023/07/02 01:55:07;;;;;;;20.13;10.87;;;16.80;99.90;;;;;;4991702;28;20211;-79
2023/07/02 01:57:33;;;;;;;21.00;11.77;;;16.80;99.90;;;;;;4998073;28;20210;-79
2023/07/02 01:59:59;;;;;;;24.80;12.30;;;16.80;99.90;;;;;;4995889;28;20866;-79
2023/07/02 02:02:24;;;;;;;20.70;11.27;;;16.70;99.90;;;;;;4988840;28;20195;-79
2023/07/02 02:04:49;;;;;;;25.90;12.00;;;16.70;99.90;;;;;;5003801;28;20187;-79
2023/07/02 02:07:15;;;;;;;23.10;12.77;;;16.70;99.90;;;;;;4986682;28;20669;-78
2023/07/02 02:09:40;;;;;;;22.27;12.90;;;16.60;1.00;;;;;;4991089;28;20338;-79
2023/07/02 02:12:06;;;;;;;19.23;11.80;;;16.60;1.00;;;;;;4979438;28;20635;-79
2023/07/02 02:14:32;;;;;;;23.73;13.07;;;16.60;1.00;;;;;;4987256;28;20211;-79
2023/07/02 02:16:57;;;;;;;23.80;12.87;;;16.60;1.00;;;;;;4988373;28;20258;-79
2023/07/02 02:19:23;;;;;;;28.23;13.10;;;16.60;1.00;;;;;;4984115;28;20681;-79
2023/07/02 02:21:48;;;;;;;25.63;13.43;;;16.50;1.00;;;;;;4990940;28;20188;-79
2023/07/02 02:24:14;;;;;;;25.60;13.63;;;16.60;1.90;;;;;;4976586;28;20192;-78
2023/07/02 02:26:40;;;;;;;19.50;12.17;;;16.50;1.00;;;;;;4985111;28;20188;-78
2023/07/02 02:29:05;;;;;;;24.87;12.90;;;16.50;37.90;;;;;;4986534;28;20454;-79
2023/07/02 02:31:31;;;;;;;25.63;13.70;;;16.50;99.90;;;;;;4991120;28;20181;-78
2023/07/02 02:33:56;;;;;;;23.17;14.90;;;16.50;99.90;;;;;;4998565;28;20578;-79
2023/07/02 02:36:22;;;;;;;20.87;14.07;;;16.50;99.90;;;;;;4982369;28;20191;-78
2023/07/02 02:38:47;;;;;;;28.57;14.23;;;16.50;99.90;;;;;;4978633;28;20218;-79
2023/07/02 02:41:13;;;;;;;23.90;13.97;;;16.50;99.90;;;;;;4979922;28;20210;-79
2023/07/02 02:43:42;;;;;;;27.97;13.43;;;16.60;99.90;;;;;;4998114;28;20234;-79
2023/07/02 02:46:08;;;;;;;28.67;13.50;;;16.60;99.90;;;;;;4991455;28;20178;-79
2023/07/02 02:48:33;;;;;;;29.50;12.77;;;16.60;99.90;;;;;;4983871;28;20474;-78
2023/07/02 02:50:59;;;;;;;31.67;13.60;;;16.60;99.90;;;;;;4989955;28;20450;-79
2023/07/02 02:53:24;;;;;;;26.40;14.43;;;16.60;99.90;;;;;;4979031;28;20220;-79
2023/07/02 02:55:50;;;;;;;28.70;13.90;;;16.70;99.90;;;;;;4983857;28;20267;-79
2023/07/02 02:58:15;;;;;;;35.60;14.80;;;16.60;99.90;;;;;;4985191;28;20211;-79
2023/07/02 03:00:45;;;;;;;27.87;14.47;;;16.70;48.40;;;;;;4997997;28;20183;-78
2023/07/02 03:03:12;;;;;;;34.13;15.80;;;16.70;42.80;;;;;;5007740;28;20176;-79
2023/07/02 03:05:37;;;;;;;30.73;15.80;;;16.70;28.50;;;;;;4982958;28;20431;-79
2023/07/02 03:08:03;;;;;;;25.50;14.53;;;16.70;25.40;;;;;;4981659;28;20981;-79
2023/07/02 03:10:29;;;;;;;32.23;14.70;;;16.70;1.00;;;;;;4978964;28;20393;-79
2023/07/02 03:12:54;;;;;;;29.90;15.57;;;16.70;1.00;;;;;;4990760;28;20187;-79
2023/07/02 03:15:20;;;;;;;24.30;15.03;;;16.80;1.00;;;;;;4990550;28;20672;-79
2023/07/02 03:17:46;;;;;;;29.60;15.67;;;16.80;1.00;;;;;;5000312;28;20190;-79
2023/07/02 03:20:11;;;;;;;31.40;16.00;;;16.80;1.00;;;;;;4979047;28;20192;-78
2023/07/02 03:22:37;;;;;;;25.83;15.70;;;16.80;1.00;;;;;;4985337;28;20190;-79
2023/07/02 03:25:03;;;;;;;28.13;16.90;;;16.80;1.00;;;;;;4983633;28;20231;-79
2023/07/02 03:27:28;;;;;;;25.13;15.40;;;16.80;1.00;;;;;;4981446;28;20652;-79
2023/07/02 03:29:54;;;;;;;29.03;16.37;;;16.80;1.00;;;;;;4988246;28;20264;-79
2023/07/02 03:32:19;;;;;;;31.03;17.63;;;16.80;1.00;;;;;;4996873;28;20191;-78
2023/07/02 03:34:45;;;;;;;29.87;15.53;;;16.80;1.00;;;;;;4984765;28;20299;-79
2023/07/02 03:37:10;;;;;;;32.60;17.43;;;16.80;1.00;;;;;;4977847;28;20181;-78
2023/07/02 03:39:36;;;;;;;36.17;17.20;;;16.80;1.00;;;;;;4986537;28;20214;-78
2023/07/02 03:42:01;;;;;;;29.23;16.50;;;16.80;1.00;;;;;;4989759;28;20190;-78
2023/07/02 03:44:27;;;;;;;28.40;17.07;;;16.80;1.00;;;;;;4987937;28;20200;-78
2023/07/02 03:46:54;;;;;;;32.20;17.50;;;16.80;1.00;;;;;;4976682;28;20677;-78
2023/07/02 03:49:19;;;;;;;31.53;16.20;;;16.90;1.00;;;;;;4986820;28;20218;-78
2023/07/02 03:51:45;;;;;;;30.83;17.40;;;16.90;1.00;;;;;;4990496;28;20525;-79
2023/07/02 03:54:10;;;;;;;30.63;14.80;;;16.90;1.00;;;;;;5000432;28;20684;-79
2023/07/02 03:56:36;;;;;;;28.57;16.40;;;16.90;1.00;;;;;;5013919;28;20608;-79
2023/07/02 03:59:01;;;;;;;30.73;16.47;;;16.90;1.00;;;;;;4996191;28;20243;-78
2023/07/02 04:01:27;;;;;;;28.33;14.80;;;16.90;1.00;;;;;;4985484;28;20215;-79
2023/07/02 04:03:53;;;;;;;31.07;17.90;;;16.90;1.00;;;;;;4985751;28;20197;-78
2023/07/02 04:06:18;;;;;;;33.20;17.60;;;16.90;1.00;;;;;;4993690;28;20191;-79
2023/07/02 04:08:44;;;;;;;35.50;17.60;;;16.90;1.00;;;;;;4998998;28;20799;-78
2023/07/02 04:11:11;;;;;;;32.80;16.97;;;16.90;1.00;;;;;;4999074;28;20189;-79
2023/07/02 04:13:37;;;;;;;38.50;20.40;;;17.00;1.00;;;;;;5011035;28;20454;-79
2023/07/02 04:16:03;;;;;;;31.40;17.37;;;17.00;1.00;;;;;;4996042;28;20445;-79
2023/07/02 04:18:31;;;;;;;29.93;16.43;;;17.00;1.00;;;;;;4981128;28;20841;-78
2023/07/02 04:20:58;;;;;;;38.60;19.63;;;17.10;1.00;;;;;;4998240;28;20632;-78
2023/07/02 04:23:24;;;;;;;39.00;18.07;;;17.10;1.00;;;;;;5009065;28;20525;-79
2023/07/02 04:25:49;;;;;;;33.63;19.07;;;17.10;99.90;;;;;;5003932;28;20431;-78
2023/07/02 04:28:15;;;;;;;32.67;18.47;;;17.10;99.90;;;;;;5003591;28;20632;-78
2023/07/02 04:30:42;;;;;;;35.17;18.47;;;17.20;99.90;;;;;;4991967;28;20658;-78
2023/07/02 04:33:07;;;;;;;34.43;18.13;;;17.20;99.90;;;;;;4979520;28;20209;-78
2023/07/02 04:35:34;;;;;;;41.20;18.60;;;17.20;99.90;;;;;;4985312;28;20461;-78
2023/07/02 04:38:00;;;;;;;38.83;19.30;;;17.30;99.90;;;;;;4979740;28;20178;-78
2023/07/02 04:40:26;;;;;;;32.43;18.60;;;17.30;99.90;;;;;;4990336;28;20837;-78
2023/07/02 04:42:57;;;;;;;35.50;20.27;;;17.40;1.00;;;;;;4986323;28;20444;-79
2023/07/02 04:45:24;;;;;;;34.83;18.37;;;17.50;1.00;;;;;;4986839;28;20280;-79
2023/07/02 04:47:50;;;;;;;34.13;18.70;;;17.60;1.00;;;;;;4996053;28;20475;-79
2023/07/02 04:50:17;;;;;;;33.43;17.03;;;17.70;1.00;;;;;;4983357;28;20967;-79
2023/07/02 04:52:43;;;;;;;36.30;18.33;;;17.80;99.90;;;;;;4993777;28;20481;-79
2023/07/02 04:55:08;;;;;;;29.37;17.27;;;17.90;99.90;;;;;;4994436;28;20469;-79
2023/07/02 04:57:34;;;;;;;39.23;18.83;;;17.90;99.90;;;;;;4978669;28;20273;-78
2023/07/02 04:59:59;;;;;;;36.87;20.67;;;18.00;99.90;;;;;;4986521;28;20210;-79
2023/07/02 05:02:25;;;;;;;36.00;20.20;;;18.00;97.80;;;;;;4994559;28;20195;-78
2023/07/02 05:04:50;;;;;;;39.27;20.07;;;18.10;10.90;;;;;;4998774;28;20252;-78
2023/07/02 05:07:16;;;;;;;36.00;18.30;;;18.10;1.00;;;;;;4991759;28;20677;-78
2023/07/02 05:09:42;;;;;;;41.83;19.77;;;18.10;1.00;;;;;;4981857;28;20215;-79
2023/07/02 05:12:08;;;;;;;34.43;17.50;;;18.20;1.00;;;;;;4985363;28;20198;-78
2023/07/02 05:14:33;;;;;;;39.23;18.87;;;18.30;1.00;;;;;;4989708;28;20214;-79
2023/07/02 05:16:59;;;;;;;33.67;17.97;;;18.40;1.00;;;;;;4988933;28;20805;-79
2023/07/02 05:19:24;;;;;;;41.77;19.90;;;18.60;1.00;;;;;;4990634;28;20210;-79
2023/07/02 05:21:50;;;;;;;36.67;20.30;;;18.60;99.90;;;;;;4991231;28;20201;-79
2023/07/02 05:24:15;;;;;;;45.70;19.53;;;18.70;99.90;;;;;;4978852;28;20764;-79
2023/07/02 05:26:41;;;;;;;40.83;20.00;;;18.70;99.90;;;;;;4983908;28;20180;-79
2023/07/02 05:29:06;;;;;;;36.70;19.57;;;18.60;99.90;;;;;;4986460;28;20266;-79
2023/07/02 05:31:34;;;;;;;37.80;19.17;;;18.70;99.90;;;;;;4998278;28;20255;-79
2023/07/02 05:33:59;;;;;;;36.23;20.30;;;19.00;99.90;;;;;;4986018;28;20258;-79
2023/07/02 05:36:25;;;;;;;40.17;20.57;;;19.20;99.90;;;;;;4979301;28;20436;-79
2023/07/02 05:38:50;;;;;;;31.87;19.57;;;19.30;26.40;;;;;;4979629;28;20277;-79
2023/07/02 05:41:20;;;;;;;42.83;21.27;;;19.30;1.00;;;;;;4976863;28;20190;-79
2023/07/02 05:43:46;;;;;;;36.67;21.10;;;19.30;1.00;;;;;;4987557;28;20215;-79
2023/07/02 05:46:13;;;;;;;39.70;22.10;;;19.30;1.00;;;;;;4987942;28;20446;-79
2023/07/02 05:48:39;;;;;;;33.03;20.57;;;19.30;1.00;;;;;;4984826;28;20215;-79
2023/07/02 05:51:05;;;;;;;42.80;22.80;;;19.50;1.00;;;;;;4982478;28;20593;-79
2023/07/02 05:53:30;;;;;;;37.60;21.90;;;19.80;1.00;;;;;;4983882;28;20229;-79
2023/07/02 05:55:56;;;;;;;35.00;19.47;;;20.10;1.00;;;;;;4991309;28;20192;-77
2023/07/02 05:58:21;;;;;;;34.80;21.77;;;20.50;1.00;;;;;;4982738;28;20200;-79
2023/07/02 06:00:50;;;;;;;41.63;20.13;;;20.60;99.90;;;;;;4986114;28;20734;-78
2023/07/02 06:03:19;;;;;;;37.67;20.67;;;20.70;99.90;;;;;;4992840;28;20533;-78
2023/07/02 06:05:47;;;;;;;38.93;22.10;;;20.90;99.90;;;;;;4987675;28;20479;-77
2023/07/02 06:08:12;;;;;;;30.70;19.20;;;21.10;99.90;;;;;;4979011;28;20456;-78
2023/07/02 06:10:38;;;;;;;41.93;19.53;;;21.40;99.90;;;;;;4976506;28;20445;-78
2023/07/02 06:13:03;;;;;;;33.67;20.67;;;21.70;99.90;;;;;;4979717;28;20190;-78
2023/07/02 06:15:29;;;;;;;40.33;20.03;;;21.90;99.90;;;;;;5000365;28;20230;-78
2023/07/02 06:17:54;;;;;;;34.47;19.07;;;22.00;99.90;;;;;;4985824;28;20189;-78
2023/07/02 06:20:20;;;;;;;33.07;19.40;;;22.20;99.90;;;;;;4985175;28;20194;-78
2023/07/02 06:22:45;;;;;;;40.40;19.63;;;22.50;99.90;;;;;;4988884;28;20197;-79
2023/07/02 06:25:11;;;;;;;36.93;20.50;;;23.40;99.90;;;;;;4987415;28;20198;-78
2023/07/02 06:27:36;;;;;;;30.23;18.50;;;23.50;99.90;;;;;;4991389;28;20189;-78
2023/07/02 06:30:02;;;;;;;39.40;19.87;;;23.90;99.90;;;;;;4980217;28;20757;-79
2023/07/02 06:32:28;;;;;;;32.33;19.30;;;24.50;99.90;;;;;;4993868;28;20716;-79
2023/07/02 06:34:53;;;;;;;31.60;19.07;;;25.00;99.90;;;;;;4983769;28;20264;-79
2023/07/02 06:37:19;;;;;;;32.47;18.07;;;24.90;99.90;;;;;;4979152;28;20188;-78
2023/07/02 06:39:44;;;;;;;30.40;18.10;;;25.70;99.90;;;;;;4984832;28;20214;-78
2023/07/02 06:42:09;;;;;;;29.90;17.90;;;25.70;99.90;;;;;;4992132;28;20191;-78
2023/07/02 06:44:35;;;;;;;31.83;17.73;;;25.60;99.90;;;;;;4984079;28;20199;-78
2023/07/02 06:47:00;;;;;;;38.63;20.07;;;25.40;99.90;;;;;;4986037;28;20205;-78
2023/07/02 06:49:26;;;;;;;31.17;18.03;;;25.20;99.90;;;;;;4984200;28;20223;-79
2023/07/02 06:51:51;;;;;;;32.57;19.10;;;26.10;99.90;;;;;;4975264;28;20185;-78
2023/07/02 06:54:17;;;;;;;30.93;19.40;;;26.20;99.90;;;;;;5002283;28;20246;-79
2023/07/02 06:56:43;;;;;;;32.80;19.03;;;28.20;99.90;;;;;;5004503;28;20178;-79
2023/07/02 06:59:08;;;;;;;32.60;18.57;;;29.10;99.90;;;;;;5010025;28;20249;-79
2023/07/02 07:01:35;;;;;;;33.13;19.40;;;29.60;99.90;;;;;;4998754;28;20194;-78
2023/07/02 07:04:00;;;;;;;28.80;18.53;;;30.00;99.90;;;;;;4984786;28;20187;-79
2023/07/02 07:06:26;;;;;;;26.63;17.60;;;29.70;99.90;;;;;;4992960;28;21004;-78
2023/07/02 07:08:51;;;;;;;30.33;19.07;;;30.70;99.90;;;;;;4994844;28;20705;-79
2023/07/02 07:11:17;;;;;;;35.37;19.00;;;30.50;99.90;;;;;;4993095;28;20270;-79
2023/07/02 07:13:43;;;;;;;32.47;18.10;;;30.10;99.90;;;;;;5000594;28;20206;-79
2023/07/02 07:16:09;;;;;;;30.57;19.10;;;29.40;99.90;;;;;;4999527;28;20182;-79
2023/07/02 07:18:34;;;;;;;30.80;18.47;;;29.00;99.90;;;;;;5000769;28;20455;-79
2023/07/02 07:21:00;;;;;;;27.63;18.80;;;29.20;99.80;;;;;;4985790;28;20179;-78
2023/07/02 07:23:25;;;;;;;28.70;17.50;;;29.50;98.90;;;;;;5001994;28;20193;-79
2023/07/02 07:25:51;;;;;;;34.43;17.37;;;29.40;97.30;;;;;;4994530;28;20175;-79
2023/07/02 07:28:16;;;;;;;27.47;17.00;;;29.30;95.30;;;;;;4996368;28;20217;-79
2023/07/02 07:30:42;;;;;;;31.63;17.27;;;30.30;97.00;;;;;;4981916;28;20195;-79
2023/07/02 07:33:08;;;;;;;29.83;18.47;;;32.40;99.90;;;;;;4988851;28;20190;-79
2023/07/02 07:35:33;;;;;;;28.10;16.80;;;33.10;95.70;;;;;;4986879;28;20475;-79
2023/07/02 07:37:59;;;;;;;23.33;17.40;;;33.40;92.40;;;;;;4979677;28;20195;-79
2023/07/02 07:40:24;;;;;;;29.20;17.60;;;33.00;85.70;;;;;;4995829;28;20175;-79
2023/07/02 07:42:50;;;;;;;30.17;18.53;;;32.50;78.30;;;;;;4990787;28;20247;-79
2023/07/02 07:45:15;;;;;;;26.90;17.87;;;33.30;77.80;;;;;;4992632;28;20188;-79
2023/07/02 07:47:41;;;;;;;27.00;18.30;;;34.10;74.40;;;;;;4997867;28;20179;-79
2023/07/02 07:50:11;;;;;;;26.80;17.70;;;34.90;71.40;;;;;;4993185;28;20199;-79
2023/07/02 07:52:40;;;;;;;29.83;17.80;;;34.90;63.80;;;;;;4988893;28;20832;-78
2023/07/02 07:55:07;;;;;;;29.63;20.50;;;33.90;57.20;;;;;;4989177;28;20470;-80
2023/07/02 07:57:33;;;;;;;28.10;17.40;;;32.60;51.60;;;;;;4992438;28;20518;-79
2023/07/02 07:59:59;;;;;;;29.43;19.73;;;33.90;55.30;;;;;;4987569;28;20439;-79
2023/07/02 08:02:24;;;;;;;27.40;18.07;;;32.80;49.80;;;;;;4993422;28;20442;-79
2023/07/02 08:04:50;;;;;;;27.03;18.07;;;31.80;46.40;;;;;;4987608;28;20188;-79
2023/07/02 08:07:15;;;;;;;29.90;18.60;;;32.50;48.50;;;;;;4980741;28;20187;-79
2023/07/02 08:09:41;;;;;;;31.23;18.60;;;32.70;47.90;;;;;;4988608;28;20217;-79
2023/07/02 08:12:07;;;;;;;23.50;16.70;;;32.70;47.10;;;;;;4999327;28;20190;-79
2023/07/02 08:14:35;;;;;;;34.23;19.43;;;32.20;43.60;;;;;;4999021;28;20285;-78
2023/07/02 08:17:00;;;;;;;35.17;18.27;;;31.60;41.40;;;;;;4990954;28;21111;-79
2023/07/02 08:19:26;;;;;;;30.13;19.33;;;30.90;39.30;;;;;;4986461;28;20552;-79
2023/07/02 08:21:52;;;;;;;29.97;19.87;;;31.00;41.00;;;;;;4979351;28;20188;-79
2023/07/02 08:24:17;;;;;;;28.93;17.27;;;31.30;41.30;;;;;;4992883;28;20567;-79
2023/07/02 08:26:44;;;;;;;27.43;19.37;;;34.50;49.00;;;;;;4982925;28;20185;-79
2023/07/02 08:29:10;;;;;;;29.37;19.57;;;33.60;41.60;;;;;;4998704;28;20551;-79
2023/07/02 08:31:35;;;;;;;30.03;19.20;;;31.90;36.30;;;;;;5001735;28;20445;-79
2023/07/02 08:34:01;;;;;;;31.40;18.67;;;30.60;33.40;;;;;;4987735;28;20208;-79
2023/07/02 08:36:26;;;;;;;28.10;17.40;;;29.30;31.70;;;;;;4977854;28;20650;-78
2023/07/02 08:38:52;;;;;;;30.40;19.83;;;28.30;30.80;;;;;;4983801;28;20329;-79
2023/07/02 08:41:17;;;;;;;30.93;19.30;;;27.50;31.00;;;;;;4990041;28;20187;-78
2023/07/02 08:43:43;;;;;;;28.80;18.70;;;27.10;31.20;;;;;;4999227;28;20198;-78
2023/07/02 08:46:09;;;;;;;27.50;17.67;;;27.40;34.00;;;;;;4992974;28;20338;-78
2023/07/02 08:48:35;;;;;;;28.43;17.40;;;30.60;45.60;;;;;;5009101;28;20206;-79
2023/07/02 08:51:02;;;;;;;31.47;18.30;;;31.80;58.00;;;;;;5000486;28;20425;-79
2023/07/02 08:53:33;;;;;;;28.17;18.33;;;32.70;45.60;;;;;;4995240;28;20717;-78
2023/07/02 08:56:05;;;;;;;28.73;19.10;;;31.80;40.60;;;;;;4985792;28;20484;-78
2023/07/02 08:58:30;;;;;;;26.57;18.17;;;30.50;35.80;;;;;;4994758;28;20459;-78
2023/07/02 09:01:12;;;;;;;29.70;18.40;;;29.30;32.70;;;;;;4986258;28;20446;-78
2023/07/02 09:03:39;;;;;;;33.50;18.53;;;27.90;30.00;;;;;;4990230;28;20176;-78
2023/07/02 09:06:09;;;;;;;31.20;17.77;;;26.80;29.40;;;;;;4982425;28;20435;-78
2023/07/02 09:08:35;;;;;;;33.07;20.30;;;26.00;29.90;;;;;;4976895;28;20469;-78
2023/07/02 09:11:11;;;;;;;32.27;18.00;;;25.40;29.80;;;;;;4980993;28;20457;-78
2023/07/02 09:13:43;;;;;;;32.27;19.03;;;25.00;30.40;;;;;;4985786;28;20471;-78
2023/07/02 09:16:30;;;;;;;32.90;19.60;;;25.20;33.00;;;;;;4980817;28;20521;-78
2023/07/02 09:18:56;;;;;;;28.57;18.00;;;25.30;35.20;;;;;;4980242;28;20481;-78
2023/07/02 09:21:22;;;;;;;26.57;17.43;;;25.40;37.20;;;;;;4978152;28;20471;-78
2023/07/02 09:23:48;;;;;;;28.83;17.37;;;26.40;41.10;;;;;;4985143;28;20185;-79
2023/07/02 09:26:23;;;;;;;27.30;16.97;;;28.40;47.10;;;;;;4992719;28;20514;-79
2023/07/02 09:32:37;;;;;;;28.40;18.00;;;28.50;34.60;;;;;;5043365;27;20580;-79
2023/07/02 09:35:04;;;;;;;27.93;16.83;;;27.80;42.30;;;;;;5042305;28;20440;-78
2023/07/02 09:37:31;;;;;;;30.60;17.20;;;27.00;39.00;;;;;;5042653;28;20887;-78
2023/07/02 09:39:57;;;;;;;32.27;17.97;;;26.50;38.30;;;;;;5039433;28;20471;-78
2023/07/02 09:42:25;;;;;;;28.30;17.80;;;26.10;37.70;;;;;;5043146;28;20440;-79
2023/07/02 09:44:53;;;;;;;33.33;19.63;;;27.00;42.10;;;;;;5035840;28;20472;-78
2023/07/02 09:47:21;;;;;;;33.00;18.80;;;28.20;46.70;;;;;;5037474;28;20458;-78
2023/07/02 09:49:53;;;;;;;27.53;18.87;;;28.30;46.50;;;;;;5033284;28;20502;-78
2023/07/02 09:52:20;;;;;;;33.23;20.40;;;27.90;44.40;;;;;;5037183;28;21244;-79
2023/07/02 09:54:45;;;;;;;33.47;18.80;;;28.20;46.30;;;;;;5034184;28;20442;-79
2023/07/02 09:57:11;;;;;;;28.27;18.97;;;29.20;48.80;;;;;;5040618;28;20842;-79
2023/07/02 09:59:38;;;;;;;29.60;18.23;;;29.00;46.60;;;;;;5037745;28;20752;-79
2023/07/02 10:02:04;;;;;;;29.50;18.03;;;28.40;44.60;;;;;;5048434;28;20644;-78
2023/07/02 10:04:40;;;;;;;27.67;18.60;;;27.70;42.30;;;;;;5036522;28;20444;-78
2023/07/02 10:07:05;;;;;;;25.70;16.27;;;27.00;41.50;;;;;;5039915;28;20188;-79
2023/07/02 10:09:44;;;;;;;33.73;16.77;;;26.50;40.80;;;;;;5046825;28;20436;-78
2023/07/02 10:12:19;;;;;;;28.90;16.87;;;26.20;40.40;;;;;;5041691;28;20926;-79
2023/07/02 10:14:46;;;;;;;26.10;15.63;;;26.00;40.10;;;;;;5041493;28;20433;-78
2023/07/02 10:17:32;;;;;;;25.43;14.87;;;26.20;40.20;;;;;;5042408;28;20432;-79
2023/07/02 10:20:11;;;;;;;23.57;13.27;;;27.90;46.20;;;;;;5035689;28;20935;-78
2023/07/02 10:22:53;;;;;;;27.50;15.37;;;27.90;43.40;;;;;;5045168;28;20431;-79
2023/07/02 10:25:38;;;;;;;31.20;16.53;;;27.40;40.10;;;;;;5045351;28;20432;-78
2023/07/02 10:28:19;;;;;;;27.73;14.93;;;26.80;38.20;;;;;;5046399;28;21016;-78
2023/07/02 10:30:45;;;;;;;19.60;12.10;;;26.50;38.00;;;;;;5042175;28;20539;-79
2023/07/02 10:33:16;;;;;;;23.70;13.03;;;26.60;38.00;;;;;;5034476;28;20870;-78
2023/07/02 10:35:49;;;;;;;27.60;14.80;;;26.40;38.20;;;;;;5044153;28;20771;-78
2023/07/02 10:38:20;;;;;;;23.00;14.07;;;26.10;37.90;;;;;;5037142;28;20460;-78
2023/07/02 10:40:46;;;;;;;27.43;14.63;;;25.70;37.20;;;;;;5043378;28;20455;-78
2023/07/02 10:43:12;;;;;;;24.73;13.43;;;25.00;35.20;;;;;;5033211;28;20444;-77
2023/07/02 10:45:38;;;;;;;24.20;13.63;;;24.30;34.30;;;;;;5031580;28;20446;-77
2023/07/02 10:48:08;;;;;;;18.80;11.47;;;23.70;31.80;;;;;;5027207;28;20560;-78
2023/07/02 10:50:34;;;;;;;20.77;12.00;;;23.30;32.70;;;;;;5028910;28;20472;-78
2023/07/02 10:52:59;;;;;;;23.00;12.43;;;23.20;33.60;;;;;;5026453;28;20942;-78
2023/07/02 10:55:27;;;;;;;24.43;12.40;;;23.60;36.70;;;;;;5026653;28;20196;-78
2023/07/02 10:58:04;;;;;;;17.00;10.60;;;25.10;42.30;;;;;;5024462;28;20181;-78
2023/07/02 11:00:29;;;;;;;19.40;10.33;;;25.80;44.00;;;;;;5027129;28;20442;-79
2023/07/02 11:02:55;;;;;;;16.27;10.80;;;27.30;47.40;;;;;;5026595;28;20795;-79
2023/07/02 11:05:21;;;;;;;16.07;10.20;;;29.10;50.80;;;;;;5029670;28;21015;-78
2023/07/02 11:07:46;;;;;;;18.87;10.37;;;30.90;53.00;;;;;;5031918;28;20616;-79
2023/07/02 11:10:18;;;;;;;13.25;9.35;;;32.20;52.10;;;;;;5031251;28;20256;-78
2023/07/02 11:12:44;;;;;;;13.67;7.70;;;33.40;50.70;;;;;;5029117;28;20999;-78
2023/07/02 11:15:14;;;;;;;18.73;9.20;;;33.00;44.00;;;;;;5031567;28;20437;-78
2023/07/02 11:17:43;;;;;;;12.67;8.10;;;31.80;36.00;;;;;;5031109;28;20285;-78
2023/07/02 11:20:13;;;;;;;15.10;8.30;;;31.70;33.40;;;;;;5031459;28;20453;-78
2023/07/02 11:22:39;;;;;;;14.37;9.50;;;33.00;34.80;;;;;;5028543;28;20568;-79
2023/07/02 11:25:20;;;;;;;12.40;8.57;;;33.50;32.10;;;;;;5033591;28;20572;-79
2023/07/02 11:27:45;;;;;;;14.17;9.00;;;34.20;29.90;;;;;;5029268;28;20240;-79
2023/07/02 11:30:12;;;;;;;11.27;7.93;;;34.30;27.80;;;;;;5024620;28;20994;-78
2023/07/02 11:32:51;;;;;;;15.27;8.60;;;34.90;26.70;;;;;;5032345;28;20217;-78
2023/07/02 11:35:18;;;;;;;11.50;7.90;;;35.30;24.40;;;;;;5032760;28;20412;-79
2023/07/02 11:37:44;;;;;;;16.63;9.13;;;35.40;22.40;;;;;;5030273;28;20437;-79
2023/07/02 11:40:10;;;;;;;14.27;8.30;;;34.40;18.60;;;;;;5026757;28;20445;-78
2023/07/02 11:42:36;;;;;;;13.40;8.67;;;33.70;15.80;;;;;;5023374;28;20455;-78
2023/07/02 11:45:02;;;;;;;15.00;8.10;;;33.30;14.60;;;;;;5028796;28;20436;-78
2023/07/02 11:47:27;;;;;;;16.80;8.87;;;33.60;14.30;;;;;;5022554;28;20187;-78
2023/07/02 11:49:54;;;;;;;11.93;7.80;;;33.90;14.80;;;;;;5029600;28;20279;-79
2023/07/02 11:52:20;;;;;;;15.03;8.40;;;34.40;14.60;;;;;;5024902;28;20565;-79
2023/07/02 11:54:46;;;;;;;13.43;8.67;;;34.60;13.70;;;;;;5027123;28;20433;-79
2023/07/02 11:57:12;;;;;;;12.53;8.07;;;34.50;12.00;;;;;;5026317;28;20232;-78
2023/07/02 11:59:38;;;;;;;14.73;8.30;;;34.30;11.70;;;;;;5019908;28;20982;-79
2023/07/02 12:02:03;;;;;;;12.70;9.17;;;34.40;11.10;;;;;;5033302;28;20181;-79
2023/07/02 12:04:29;;;;;;;16.23;9.27;;;34.40;10.00;;;;;;5032193;28;20190;-79
2023/07/02 12:06:55;;;;;;;15.40;9.57;;;34.50;10.20;;;;;;5032865;28;20182;-79
2023/07/02 12:09:20;;;;;;;17.40;8.87;;;34.80;9.40;;;;;;5033171;28;20277;-79
2023/07/02 12:11:46;;;;;;;13.33;7.73;;;34.10;7.70;;;;;;5032824;28;20236;-79
2023/07/02 12:14:12;;;;;;;13.27;8.67;;;33.40;6.30;;;;;;5031238;28;20170;-77
2023/07/02 12:16:37;;;;;;;17.63;8.57;;;32.60;4.30;;;;;;5030334;28;20656;-79
2023/07/02 12:19:03;;;;;;;14.63;8.00;;;32.70;5.30;;;;;;5027236;28;20441;-78
2023/07/02 12:21:28;;;;;;;17.63;10.03;;;32.20;3.80;;;;;;5032226;28;20437;-79
2023/07/02 12:23:54;;;;;;;17.87;10.13;;;32.40;5.20;;;;;;5032030;28;20615;-78
2023/07/02 12:26:20;;;;;;;13.27;9.00;;;32.40;7.00;;;;;;5031892;28;20200;-79
2023/07/02 12:28:45;;;;;;;17.57;9.90;;;32.40;5.30;;;;;;5024608;28;20205;-79
2023/07/02 12:31:12;;;;;;;17.57;11.63;;;32.10;4.90;;;;;;5024502;28;20706;-78
2023/07/02 12:33:38;;;;;;;18.60;9.30;;;31.70;4.50;;;;;;5031991;28;20177;-79